createdAt,value
2022-07-29T00:02:26.558Z,99.90
2022-07-29T00:04:53.621Z,99.90
2022-07-29T00:07:20.856Z,99.90
2022-07-29T00:09:51.845Z,99.90
2022-07-29T00:12:21.379Z,99.90
2022-07-29T00:14:53.173Z,99.90
2022-07-29T00:17:20.125Z,99.90
2022-07-29T00:19:47.076Z,99.90
2022-07-29T00:22:13.998Z,99.90
2022-07-29T00:24:40.926Z,99.90
2022-07-29T00:27:07.888Z,99.90
2022-07-29T00:29:35.326Z,99.90
2022-07-29T00:32:03.210Z,99.90
2022-07-29T00:34:48.829Z,99.90
2022-07-29T00:37:15.739Z,99.90
2022-07-29T00:39:42.678Z,99.90
2022-07-29T00:42:10.702Z,99.90
2022-07-29T00:44:38.588Z,99.90
2022-07-29T00:47:05.904Z,99.90
2022-07-29T00:49:33.479Z,99.90
2022-07-29T00:52:01.872Z,99.90
2022-07-29T00:54:30.158Z,99.90
2022-07-29T00:56:59.036Z,99.90
2022-07-29T00:59:27.078Z,99.90
2022-07-29T01:02:02.151Z,99.90
2022-07-29T01:04:30.919Z,99.90
2022-07-29T01:06:58.028Z,99.90
2022-07-29T01:09:40.875Z,99.90
2022-07-29T01:12:14.097Z,99.90
2022-07-29T01:14:41.667Z,99.90
2022-07-29T01:17:27.421Z,99.90
2022-07-29T01:19:54.838Z,99.90
2022-07-29T01:22:40.435Z,99.90
2022-07-29T01:25:07.900Z,99.90
2022-07-29T01:27:53.629Z,99.90
2022-07-29T01:30:22.205Z,99.90
2022-07-29T01:32:54.514Z,99.90
2022-07-29T01:35:26.172Z,99.90
2022-07-29T01:38:10.721Z,99.90
2022-07-29T01:40:42.084Z,99.90
2022-07-29T01:43:13.971Z,99.90
2022-07-29T01:46:13.391Z,99.90
2022-07-29T01:48:43.557Z,99.90
2022-07-29T01:51:15.857Z,99.90
2022-07-29T01:53:48.916Z,99.90
2022-07-29T01:56:18.089Z,99.90
2022-07-29T01:58:46.667Z,99.90
2022-07-29T02:01:14.498Z,99.90
2022-07-29T02:03:44.442Z,99.90
2022-07-29T02:06:12.483Z,99.90
2022-07-29T02:08:40.622Z,99.90
2022-07-29T02:11:08.322Z,99.90
2022-07-29T02:13:37.057Z,99.90
2022-07-29T02:16:05.759Z,99.90
2022-07-29T02:18:32.840Z,99.90
2022-07-29T02:21:00.483Z,99.90
2022-07-29T02:23:27.612Z,99.90
2022-07-29T02:25:57.255Z,99.90
2022-07-29T02:28:26.667Z,99.90
2022-07-29T02:30:54.604Z,99.90
2022-07-29T02:33:22.906Z,99.90
2022-07-29T02:35:49.992Z,99.90
2022-07-29T02:38:36.249Z,99.90
2022-07-29T02:41:05.488Z,99.90
2022-07-29T02:43:33.990Z,99.90
2022-07-29T02:46:01.866Z,99.90
2022-07-29T02:48:52.211Z,99.90
2022-07-29T02:51:43.433Z,99.90
2022-07-29T02:54:08.906Z,99.90
2022-07-29T02:56:36.222Z,99.90
2022-07-29T02:59:05.263Z,99.90
2022-07-29T03:01:34.036Z,99.90
2022-07-29T03:04:02.753Z,99.90
2022-07-29T03:06:38.061Z,99.90
2022-07-29T03:09:12.786Z,99.90
2022-07-29T03:11:48.015Z,99.90
2022-07-29T03:14:19.311Z,99.90
2022-07-29T03:16:46.872Z,99.90
2022-07-29T03:19:14.289Z,99.90
2022-07-29T03:21:41.290Z,99.90
2022-07-29T03:24:10.789Z,99.90
2022-07-29T03:26:39.499Z,99.90
2022-07-29T03:29:06.467Z,99.90
2022-07-29T03:31:34.031Z,99.90
2022-07-29T03:34:01.235Z,99.90
2022-07-29T03:36:28.189Z,99.90
2022-07-29T03:38:55.771Z,99.90
2022-07-29T03:41:23.990Z,99.90
2022-07-29T03:43:51.389Z,99.90
2022-07-29T03:46:19.044Z,99.90
2022-07-29T03:48:49.906Z,99.90
2022-07-29T03:51:16.975Z,99.90
2022-07-29T03:53:43.904Z,99.90
2022-07-29T03:56:11.255Z,99.90
2022-07-29T03:58:38.867Z,99.90
2022-07-29T04:01:06.058Z,99.90
2022-07-29T04:03:33.087Z,99.90
2022-07-29T04:06:00.940Z,99.90
2022-07-29T04:08:27.903Z,99.90
2022-07-29T04:10:54.883Z,99.90
2022-07-29T04:13:21.866Z,99.90
2022-07-29T04:15:48.903Z,99.90
2022-07-29T04:18:15.991Z,99.90
2022-07-29T04:20:42.937Z,99.90
2022-07-29T04:23:10.017Z,99.90
2022-07-29T04:25:40.885Z,99.90
2022-07-29T04:28:08.648Z,99.90
2022-07-29T04:30:36.024Z,99.90
2022-07-29T04:33:03.758Z,99.90
2022-07-29T04:35:38.316Z,99.90
2022-07-29T04:38:06.863Z,99.90
2022-07-29T04:40:34.295Z,99.90
2022-07-29T04:43:03.316Z,99.90
2022-07-29T04:45:32.738Z,99.90
2022-07-29T04:47:59.734Z,99.90
2022-07-29T04:50:26.682Z,99.90
2022-07-29T04:52:53.612Z,99.90
2022-07-29T04:55:20.659Z,99.90
2022-07-29T04:57:47.595Z,99.90
2022-07-29T05:00:14.672Z,99.90
2022-07-29T05:02:42.072Z,99.90
2022-07-29T05:05:09.279Z,99.90
2022-07-29T05:07:36.288Z,99.90
2022-07-29T05:10:03.922Z,99.90
2022-07-29T05:12:30.812Z,99.90
2022-07-29T05:14:57.813Z,99.90
2022-07-29T05:17:24.780Z,99.90
2022-07-29T05:19:52.654Z,99.90
2022-07-29T05:22:20.425Z,99.90
2022-07-29T05:24:47.624Z,99.90
2022-07-29T05:27:14.732Z,99.90
2022-07-29T05:29:42.595Z,99.90
2022-07-29T05:32:12.234Z,99.90
2022-07-29T05:34:50.065Z,99.90
2022-07-29T05:37:18.954Z,99.90
2022-07-29T05:39:48.199Z,99.90
2022-07-29T05:42:16.277Z,99.90
2022-07-29T05:44:43.234Z,99.90
2022-07-29T05:47:10.150Z,99.90
2022-07-29T05:49:37.334Z,99.90
2022-07-29T05:52:04.459Z,99.90
2022-07-29T05:54:31.732Z,99.90
2022-07-29T05:56:58.638Z,99.90
2022-07-29T05:59:30.124Z,99.90
2022-07-29T06:01:58.638Z,99.90
2022-07-29T06:04:25.844Z,99.90
2022-07-29T06:06:52.890Z,99.90
2022-07-29T06:09:19.962Z,99.90
2022-07-29T06:11:46.835Z,99.90
2022-07-29T06:14:14.338Z,99.90
2022-07-29T06:16:41.732Z,99.90
2022-07-29T06:19:08.702Z,99.90
2022-07-29T06:21:36.515Z,99.90
2022-07-29T06:24:08.967Z,99.90
2022-07-29T06:26:39.687Z,99.90
2022-07-29T06:29:07.474Z,99.90
2022-07-29T06:31:34.920Z,99.90
2022-07-29T06:34:01.806Z,99.90
2022-07-29T06:36:30.539Z,99.90
2022-07-29T06:38:57.621Z,99.90
2022-07-29T06:41:24.942Z,99.90
2022-07-29T06:43:55.211Z,99.90
2022-07-29T06:46:23.218Z,99.90
2022-07-29T06:48:50.841Z,99.90
2022-07-29T06:51:22.542Z,99.90
2022-07-29T06:53:59.591Z,99.90
2022-07-29T06:56:39.556Z,99.90
2022-07-29T06:59:10.754Z,99.90
2022-07-29T07:01:38.479Z,99.90
2022-07-29T07:04:05.614Z,99.90
2022-07-29T07:06:32.544Z,99.90
2022-07-29T07:08:59.483Z,99.90
2022-07-29T07:11:26.508Z,99.90
2022-07-29T07:13:53.550Z,99.90
2022-07-29T07:16:20.597Z,99.90
2022-07-29T07:18:47.538Z,99.90
2022-07-29T07:21:19.337Z,99.90
2022-07-29T07:23:46.963Z,99.90
2022-07-29T07:26:13.934Z,99.90
2022-07-29T07:28:40.948Z,99.90
2022-07-29T07:31:07.873Z,99.90
2022-07-29T07:33:34.804Z,99.90
2022-07-29T07:36:01.917Z,99.90
2022-07-29T07:38:29.134Z,99.90
2022-07-29T07:40:56.081Z,99.90
2022-07-29T07:43:23.727Z,99.90
2022-07-29T07:45:50.766Z,99.90
2022-07-29T07:48:17.838Z,99.90
2022-07-29T07:50:45.034Z,99.90
2022-07-29T07:53:12.101Z,99.90
2022-07-29T07:56:08.163Z,99.90
2022-07-29T07:58:29.299Z,99.90
2022-07-29T08:00:56.440Z,99.90
2022-07-29T08:03:23.381Z,99.90
2022-07-29T08:05:52.153Z,99.90
2022-07-29T08:08:19.477Z,99.90
2022-07-29T08:10:57.063Z,99.90
2022-07-29T08:13:26.279Z,99.90
2022-07-29T08:15:59.010Z,99.90
2022-07-29T08:18:26.909Z,99.90
2022-07-29T08:20:53.893Z,99.90
2022-07-29T08:23:20.870Z,99.90
2022-07-29T08:25:50.337Z,99.90
2022-07-29T08:28:18.156Z,99.90
2022-07-29T08:30:45.263Z,99.90
2022-07-29T08:33:12.300Z,99.90
2022-07-29T08:35:39.803Z,99.90
2022-07-29T08:38:06.888Z,99.90
2022-07-29T08:40:33.896Z,99.90
2022-07-29T08:43:06.455Z,99.90
2022-07-29T08:45:42.242Z,99.90
2022-07-29T08:48:15.346Z,99.90
2022-07-29T08:50:42.800Z,99.90
2022-07-29T08:53:14.526Z,99.90
2022-07-29T08:55:46.775Z,99.90
2022-07-29T08:58:15.653Z,99.90
2022-07-29T09:00:46.789Z,99.90
2022-07-29T09:03:16.606Z,99.90
2022-07-29T09:05:47.976Z,99.90
2022-07-29T09:08:16.062Z,99.90
2022-07-29T09:10:43.089Z,99.90
2022-07-29T09:13:10.084Z,99.90
2022-07-29T09:15:37.139Z,99.90
2022-07-29T09:18:04.199Z,99.90
2022-07-29T09:20:51.095Z,99.90
2022-07-29T09:23:23.440Z,99.90
2022-07-29T09:25:51.722Z,99.90
2022-07-29T09:28:18.892Z,99.90
2022-07-29T09:30:53.264Z,99.90
2022-07-29T09:33:20.285Z,99.90
2022-07-29T09:35:56.998Z,99.90
2022-07-29T09:38:24.698Z,99.90
2022-07-29T09:41:03.259Z,99.90
2022-07-29T09:43:33.471Z,99.90
2022-07-29T09:46:13.409Z,99.90
2022-07-29T09:48:40.368Z,99.90
2022-07-29T09:51:20.615Z,99.90
2022-07-29T09:53:49.463Z,99.90
2022-07-29T09:56:16.395Z,99.90
2022-07-29T09:58:43.254Z,99.90
2022-07-29T10:01:10.242Z,99.90
2022-07-29T10:03:53.344Z,99.90
2022-07-29T10:06:20.365Z,99.90
2022-07-29T10:08:47.653Z,99.90
2022-07-29T10:11:16.046Z,99.90
2022-07-29T10:13:44.390Z,99.90
2022-07-29T10:16:11.595Z,99.90
2022-07-29T10:18:41.536Z,99.90
2022-07-29T10:21:08.583Z,99.90
2022-07-29T10:23:46.458Z,99.90
2022-07-29T10:26:15.613Z,99.90
2022-07-29T10:28:42.565Z,99.90
2022-07-29T10:31:13.382Z,99.90
2022-07-29T10:33:40.353Z,99.60
2022-07-29T10:36:25.349Z,99.20
2022-07-29T10:38:56.479Z,99.10
2022-07-29T10:41:59.537Z,98.50
2022-07-29T10:44:27.136Z,99.10
2022-07-29T10:46:54.663Z,98.60
2022-07-29T10:49:30.762Z,99.80
2022-07-29T10:52:05.799Z,99.00
2022-07-29T10:54:39.653Z,99.50
2022-07-29T10:57:13.861Z,97.80
2022-07-29T10:59:41.797Z,97.60
2022-07-29T11:02:41.720Z,97.80
2022-07-29T11:05:11.679Z,98.00
2022-07-29T11:07:45.668Z,96.70
2022-07-29T11:10:13.858Z,97.10
2022-07-29T11:12:43.757Z,96.50
2022-07-29T11:15:18.597Z,95.90
2022-07-29T11:17:59.270Z,95.60
2022-07-29T11:20:38.571Z,96.10
2022-07-29T11:23:33.858Z,96.00
2022-07-29T11:26:10.983Z,96.70
2022-07-29T11:28:42.806Z,96.20
2022-07-29T11:31:11.227Z,95.80
2022-07-29T11:33:56.021Z,96.20
2022-07-29T11:36:28.183Z,95.80
2022-07-29T11:39:15.507Z,95.50
2022-07-29T11:41:42.564Z,95.20
2022-07-29T11:44:09.805Z,95.30
2022-07-29T11:46:56.959Z,95.00
2022-07-29T11:49:32.244Z,94.70
2022-07-29T11:52:02.953Z,94.90
2022-07-29T11:54:57.193Z,95.10
2022-07-29T11:57:21.819Z,95.10
2022-07-29T11:59:48.922Z,94.20
2022-07-29T12:02:38.415Z,94.70
2022-07-29T12:05:10.382Z,95.90
2022-07-29T12:07:38.823Z,95.60
2022-07-29T12:10:06.491Z,95.10
2022-07-29T12:12:34.295Z,95.20
2022-07-29T12:15:22.268Z,95.00
2022-07-29T12:17:49.553Z,94.90
2022-07-29T12:20:27.610Z,95.00
2022-07-29T12:22:55.693Z,94.30
2022-07-29T12:25:33.153Z,95.80
2022-07-29T12:28:06.136Z,94.70
2022-07-29T12:30:45.606Z,92.30
2022-07-29T12:33:16.694Z,92.90
2022-07-29T12:35:54.060Z,92.80
2022-07-29T12:38:30.792Z,93.90
2022-07-29T12:40:57.830Z,93.00
2022-07-29T12:43:25.538Z,91.90
2022-07-29T12:45:56.872Z,92.30
2022-07-29T12:48:37.161Z,92.60
2022-07-29T12:51:04.803Z,93.80
2022-07-29T12:53:31.718Z,94.90
2022-07-29T12:56:08.045Z,94.60
2022-07-29T12:58:43.878Z,94.00
2022-07-29T13:01:17.227Z,93.90
2022-07-29T13:03:56.950Z,94.00
2022-07-29T13:06:28.748Z,91.50
2022-07-29T13:09:00.257Z,92.30
2022-07-29T13:11:31.083Z,91.20
2022-07-29T13:14:03.109Z,91.30
2022-07-29T13:16:33.627Z,91.60
2022-07-29T13:19:20.794Z,91.40
2022-07-29T13:21:47.716Z,91.50
2022-07-29T13:24:18.138Z,91.40
2022-07-29T13:26:47.081Z,90.70
2022-07-29T13:29:14.155Z,89.60
2022-07-29T13:31:41.096Z,91.30
2022-07-29T13:34:08.008Z,91.30
2022-07-29T13:36:38.708Z,91.40
2022-07-29T13:39:08.203Z,91.30
2022-07-29T13:41:35.166Z,91.20
2022-07-29T13:44:02.148Z,91.30
2022-07-29T13:46:29.104Z,93.00
2022-07-29T13:48:56.120Z,93.80
2022-07-29T13:51:23.461Z,93.30
2022-07-29T13:53:50.397Z,92.70
2022-07-29T13:56:17.332Z,92.50
2022-07-29T13:58:44.238Z,91.80
2022-07-29T14:01:11.280Z,92.20
2022-07-29T14:03:41.849Z,92.10
2022-07-29T14:06:12.883Z,90.40
2022-07-29T14:08:40.107Z,91.30
2022-07-29T14:11:07.058Z,92.60
2022-07-29T14:13:33.945Z,92.50
2022-07-29T14:16:00.967Z,92.70
2022-07-29T14:18:27.955Z,93.60
2022-07-29T14:20:54.970Z,93.20
2022-07-29T14:23:21.921Z,93.60
2022-07-29T14:25:49.446Z,93.10
2022-07-29T14:28:16.685Z,93.30
2022-07-29T14:30:43.655Z,93.40
2022-07-29T14:33:11.343Z,93.40
2022-07-29T14:35:38.452Z,93.30
2022-07-29T14:38:05.490Z,93.30
2022-07-29T14:40:32.499Z,93.00
2022-07-29T14:42:59.460Z,91.30
2022-07-29T14:45:26.432Z,92.60
2022-07-29T14:47:57.396Z,92.90
2022-07-29T14:50:31.279Z,92.60
2022-07-29T14:52:59.735Z,92.60
2022-07-29T14:55:26.877Z,93.00
2022-07-29T14:58:03.091Z,92.70
2022-07-29T15:00:35.311Z,92.40
2022-07-29T15:03:03.066Z,92.60
2022-07-29T15:05:31.093Z,92.80
2022-07-29T15:07:58.254Z,93.40
2022-07-29T15:10:25.378Z,93.10
2022-07-29T15:12:54.601Z,92.90
2022-07-29T15:15:21.601Z,93.50
2022-07-29T15:17:48.599Z,93.40
2022-07-29T15:20:17.636Z,92.40
2022-07-29T15:22:44.801Z,91.90
2022-07-29T15:25:12.023Z,91.60
2022-07-29T15:27:38.962Z,91.70
2022-07-29T15:30:06.124Z,91.90
2022-07-29T15:32:33.085Z,91.60
2022-07-29T15:35:00.002Z,92.00
2022-07-29T15:37:27.041Z,92.30
2022-07-29T15:40:13.926Z,93.30
2022-07-29T15:42:40.773Z,93.20
2022-07-29T15:45:07.902Z,93.20
2022-07-29T15:47:36.456Z,94.20
2022-07-29T15:50:03.594Z,94.70
2022-07-29T15:52:30.559Z,94.80
2022-07-29T15:54:57.894Z,95.00
2022-07-29T15:57:25.105Z,95.10
2022-07-29T15:59:52.184Z,94.80
2022-07-29T16:02:19.374Z,94.40
2022-07-29T16:04:46.388Z,94.10
2022-07-29T16:07:14.270Z,93.80
2022-07-29T16:09:41.573Z,94.00
2022-07-29T16:12:11.090Z,93.50
2022-07-29T16:14:45.015Z,92.80
2022-07-29T16:17:14.473Z,92.50
2022-07-29T16:19:42.814Z,92.40
2022-07-29T16:22:09.804Z,91.50
2022-07-29T16:24:36.840Z,91.60
2022-07-29T16:27:03.831Z,91.90
2022-07-29T16:29:31.004Z,92.90
2022-07-29T16:31:58.106Z,93.90
2022-07-29T16:34:25.098Z,94.30
2022-07-29T16:36:52.023Z,94.90
2022-07-29T16:39:18.979Z,95.20
2022-07-29T16:41:45.901Z,93.90
2022-07-29T16:44:12.816Z,95.20
2022-07-29T16:46:40.850Z,95.50
2022-07-29T16:49:08.504Z,95.60
2022-07-29T16:51:35.507Z,96.30
2022-07-29T16:54:02.576Z,97.10
2022-07-29T16:56:29.427Z,97.40
2022-07-29T16:58:57.841Z,97.60
2022-07-29T17:01:24.742Z,97.40
2022-07-29T17:04:06.964Z,98.00
2022-07-29T17:06:35.264Z,98.40
2022-07-29T17:09:03.097Z,98.80
2022-07-29T17:11:52.580Z,99.40
2022-07-29T17:14:17.307Z,99.60
2022-07-29T17:16:58.999Z,99.70
2022-07-29T17:19:32.673Z,99.90
2022-07-29T17:22:07.023Z,99.90
2022-07-29T17:24:38.301Z,99.90
2022-07-29T17:27:06.000Z,99.90
2022-07-29T17:29:33.032Z,99.90
2022-07-29T17:32:00.336Z,99.90
2022-07-29T17:34:27.386Z,99.90
2022-07-29T17:36:54.225Z,99.90
2022-07-29T17:39:22.058Z,99.90
2022-07-29T17:41:49.226Z,99.90
2022-07-29T17:44:16.351Z,99.90
2022-07-29T17:46:43.605Z,99.90
2022-07-29T17:49:10.754Z,99.90
2022-07-29T17:51:37.773Z,99.90
2022-07-29T17:54:04.786Z,99.90
2022-07-29T17:56:31.906Z,99.90
2022-07-29T17:59:01.729Z,99.90
2022-07-29T18:01:29.040Z,99.90
2022-07-29T18:03:59.767Z,99.90
2022-07-29T18:06:27.352Z,99.90
2022-07-29T18:08:55.517Z,99.90
2022-07-29T18:11:22.769Z,99.90
2022-07-29T18:13:49.897Z,99.90
2022-07-29T18:16:16.906Z,99.90
2022-07-29T18:18:44.400Z,99.90
2022-07-29T18:21:11.676Z,99.90
2022-07-29T18:23:38.695Z,99.90
2022-07-29T18:26:05.745Z,99.90
2022-07-29T18:28:32.927Z,99.90
2022-07-29T18:31:00.268Z,99.90
2022-07-29T18:33:27.950Z,99.90
2022-07-29T18:36:10.052Z,99.90
2022-07-29T18:38:39.663Z,99.90
2022-07-29T18:41:06.878Z,99.90
2022-07-29T18:43:33.857Z,99.90
2022-07-29T18:46:00.807Z,99.90
2022-07-29T18:48:29.624Z,99.90
2022-07-29T18:50:56.528Z,99.90
2022-07-29T18:53:23.442Z,99.90
2022-07-29T18:55:50.315Z,99.90
2022-07-29T18:58:17.216Z,99.90
2022-07-29T19:00:44.177Z,99.90
2022-07-29T19:03:11.267Z,99.90
2022-07-29T19:05:38.277Z,99.90
2022-07-29T19:08:05.380Z,99.90
2022-07-29T19:10:32.296Z,99.90
2022-07-29T19:12:59.317Z,99.90
2022-07-29T19:15:26.381Z,99.90
2022-07-29T19:17:56.561Z,99.90
2022-07-29T19:20:26.139Z,99.90
2022-07-29T19:22:53.036Z,99.90
2022-07-29T19:25:19.962Z,99.90
2022-07-29T19:27:46.862Z,99.90
2022-07-29T19:30:14.076Z,99.90
2022-07-29T19:32:40.990Z,99.90
2022-07-29T19:35:28.526Z,99.90
2022-07-29T19:37:56.218Z,99.90
2022-07-29T19:40:23.161Z,99.90
2022-07-29T19:42:51.742Z,99.90
2022-07-29T19:45:21.693Z,99.90
2022-07-29T19:47:48.928Z,99.90
2022-07-29T19:50:16.145Z,99.90
2022-07-29T19:52:43.448Z,99.90
2022-07-29T19:55:10.397Z,99.90
2022-07-29T19:57:41.002Z,99.90
2022-07-29T20:00:11.416Z,99.90
2022-07-29T20:02:39.394Z,99.90
2022-07-29T20:05:06.810Z,99.90
2022-07-29T20:07:33.862Z,99.90
2022-07-29T20:10:00.793Z,99.90
2022-07-29T20:12:27.732Z,99.90
2022-07-29T20:14:54.619Z,99.90
2022-07-29T20:17:24.430Z,99.90
2022-07-29T20:19:51.941Z,99.90
2022-07-29T20:22:21.142Z,99.90
2022-07-29T20:24:48.442Z,99.90
2022-07-29T20:27:15.496Z,99.90
2022-07-29T20:29:42.493Z,99.90
2022-07-29T20:32:09.417Z,99.90
2022-07-29T20:34:36.383Z,99.90
2022-07-29T20:37:03.408Z,99.90
2022-07-29T20:39:30.563Z,99.90
2022-07-29T20:41:57.480Z,99.90
2022-07-29T20:44:24.500Z,99.90
2022-07-29T20:46:51.755Z,99.90
2022-07-29T20:49:18.787Z,99.90
2022-07-29T20:51:45.803Z,99.90
2022-07-29T20:54:12.874Z,99.90
2022-07-29T20:56:39.906Z,99.90
2022-07-29T20:59:06.962Z,99.90
2022-07-29T21:01:33.933Z,99.90
2022-07-29T21:04:01.739Z,99.90
2022-07-29T21:06:29.052Z,99.90
2022-07-29T21:08:58.108Z,99.90
2022-07-29T21:11:43.611Z,99.90
2022-07-29T21:14:30.325Z,99.90
2022-07-29T21:16:57.462Z,99.90
2022-07-29T21:19:24.526Z,99.90
2022-07-29T21:21:51.433Z,99.90
2022-07-29T21:24:19.237Z,99.90
2022-07-29T21:26:54.461Z,99.90
2022-07-29T21:29:26.919Z,99.90
2022-07-29T21:31:53.928Z,99.90
2022-07-29T21:34:21.258Z,99.90
2022-07-29T21:36:48.996Z,99.90
2022-07-29T21:39:16.152Z,99.90
2022-07-29T21:41:43.270Z,99.90
2022-07-29T21:44:10.463Z,99.90
2022-07-29T21:46:37.454Z,99.90
2022-07-29T21:49:04.781Z,99.90
2022-07-29T21:51:31.740Z,99.90
2022-07-29T21:53:58.714Z,99.90
2022-07-29T21:56:27.971Z,99.90
2022-07-29T21:58:55.324Z,99.90
2022-07-29T22:01:22.338Z,99.90
2022-07-29T22:03:49.352Z,99.90
2022-07-29T22:06:18.144Z,99.90
2022-07-29T22:08:45.897Z,99.90
2022-07-29T22:11:12.963Z,99.90
2022-07-29T22:13:40.010Z,99.90
2022-07-29T22:16:07.199Z,99.90
2022-07-29T22:18:34.112Z,99.90
2022-07-29T22:21:01.246Z,99.90
2022-07-29T22:23:28.319Z,99.90
2022-07-29T22:25:55.341Z,99.90
2022-07-29T22:28:22.338Z,99.90
2022-07-29T22:30:49.380Z,99.90
2022-07-29T22:33:17.839Z,99.90
2022-07-29T22:35:45.431Z,99.90
2022-07-29T22:38:16.071Z,99.90
2022-07-29T22:40:43.069Z,99.90
2022-07-29T22:43:10.800Z,99.90
2022-07-29T22:45:37.847Z,99.90
2022-07-29T22:48:05.297Z,99.90
2022-07-29T22:50:32.224Z,99.90
2022-07-29T22:52:59.190Z,99.90
2022-07-29T22:55:26.341Z,99.90
2022-07-29T22:57:53.284Z,99.90
2022-07-29T23:00:20.215Z,99.90
2022-07-29T23:02:47.657Z,99.90
2022-07-29T23:05:15.996Z,99.90
2022-07-29T23:07:43.217Z,99.90
2022-07-29T23:10:10.250Z,99.90
2022-07-29T23:12:37.307Z,99.90
2022-07-29T23:15:05.056Z,99.90
2022-07-29T23:17:32.369Z,99.90
2022-07-29T23:20:05.043Z,99.90
2022-07-29T23:22:31.923Z,99.90
2022-07-29T23:24:58.884Z,99.90
2022-07-29T23:27:25.994Z,99.90
2022-07-29T23:29:53.029Z,99.90
2022-07-29T23:32:19.963Z,99.90
2022-07-29T23:34:47.148Z,99.90
2022-07-29T23:37:14.007Z,99.90
2022-07-29T23:39:40.977Z,99.90
2022-07-29T23:42:07.963Z,99.90
2022-07-29T23:44:34.851Z,99.90
2022-07-29T23:47:02.183Z,99.90
2022-07-29T23:49:29.416Z,99.90
2022-07-29T23:51:56.499Z,99.90
2022-07-29T23:54:23.367Z,99.90
2022-07-29T23:56:50.343Z,99.90
2022-07-29T23:59:17.303Z,99.90
